sensor_id;sensor_type;location;lat;lon;timestamp;temperature;humidity
30280;DHT22;17097;50.916;5.344;2023-06-10T00:00:40;23.60;99.00
30280;DHT22;17097;50.916;5.344;2023-06-10T00:03:07;23.60;99.30
30280;DHT22;17097;50.916;5.344;2023-06-10T00:05:38;23.50;99.60
30280;DHT22;17097;50.916;5.344;2023-06-10T00:08:05;23.50;99.90
30280;DHT22;17097;50.916;5.344;2023-06-10T00:10:38;23.50;99.90
30280;DHT22;17097;50.916;5.344;2023-06-10T00:13:05;23.40;99.90
30280;DHT22;17097;50.916;5.344;2023-06-10T00:15:33;23.40;99.90
30280;DHT22;17097;50.916;5.344;2023-06-10T00:17:59;23.40;99.90
30280;DHT22;17097;50.916;5.344;2023-06-10T00:20:26;23.30;99.90
30280;DHT22;17097;50.916;5.344;2023-06-10T00:22:55;23.30;99.90
30280;DHT22;17097;50.916;5.344;2023-06-10T00:25:22;23.30;99.90
30280;DHT22;17097;50.916;5.344;2023-06-10T00:27:48;23.20;99.90
30280;DHT22;17097;50.916;5.344;2023-06-10T00:30:14;23.20;99.90
30280;DHT22;17097;50.916;5.344;2023-06-10T00:32:40;23.20;99.90
30280;DHT22;17097;50.916;5.344;2023-06-10T00:35:07;23.20;99.90
30280;DHT22;17097;50.916;5.344;2023-06-10T00:37:33;23.10;99.90
30280;DHT22;17097;50.916;5.344;2023-06-10T00:40:02;23.10;99.90
30280;DHT22;17097;50.916;5.344;2023-06-10T00:42:28;23.10;99.90
30280;DHT22;17097;50.916;5.344;2023-06-10T00:44:56;23.00;99.90
30280;DHT22;17097;50.916;5.344;2023-06-10T00:47:22;23.00;99.90
30280;DHT22;17097;50.916;5.344;2023-06-10T00:49:49;22.90;99.90
30280;DHT22;17097;50.916;5.344;2023-06-10T00:52:16;22.90;99.90
30280;DHT22;17097;50.916;5.344;2023-06-10T00:54:44;22.90;99.90
30280;DHT22;17097;50.916;5.344;2023-06-10T00:57:10;22.80;99.90
30280;DHT22;17097;50.916;5.344;2023-06-10T00:59:38;22.80;99.90
30280;DHT22;17097;50.916;5.344;2023-06-10T01:02:05;22.80;99.90
30280;DHT22;17097;50.916;5.344;2023-06-10T01:04:33;22.70;99.90
30280;DHT22;17097;50.916;5.344;2023-06-10T01:12:59;22.70;99.90
30280;DHT22;17097;50.916;5.344;2023-06-10T01:15:31;22.70;99.90
30280;DHT22;17097;50.916;5.344;2023-06-10T01:18:05;22.60;99.90
30280;DHT22;17097;50.916;5.344;2023-06-10T01:20:35;22.60;99.90
30280;DHT22;17097;50.916;5.344;2023-06-10T01:23:04;22.50;99.90
30280;DHT22;17097;50.916;5.344;2023-06-10T01:25:35;22.50;99.90
30280;DHT22;17097;50.916;5.344;2023-06-10T01:33:29;22.40;99.90
30280;DHT22;17097;50.916;5.344;2023-06-10T01:35:57;22.40;99.90
30280;DHT22;17097;50.916;5.344;2023-06-10T01:38:25;22.40;99.90
30280;DHT22;17097;50.916;5.344;2023-06-10T01:40:53;22.30;99.90
30280;DHT22;17097;50.916;5.344;2023-06-10T01:43:20;22.30;99.90
30280;DHT22;17097;50.916;5.344;2023-06-10T01:45:46;22.30;99.90
30280;DHT22;17097;50.916;5.344;2023-06-10T01:48:12;22.20;99.90
30280;DHT22;17097;50.916;5.344;2023-06-10T01:50:40;22.20;99.90
30280;DHT22;17097;50.916;5.344;2023-06-10T01:53:08;22.20;99.90
30280;DHT22;17097;50.916;5.344;2023-06-10T01:55:36;22.20;99.90
30280;DHT22;17097;50.916;5.344;2023-06-10T01:58:01;22.20;99.90
30280;DHT22;17097;50.916;5.344;2023-06-10T02:00:30;22.20;99.90
30280;DHT22;17097;50.916;5.344;2023-06-10T02:02:56;22.10;99.90
30280;DHT22;17097;50.916;5.344;2023-06-10T02:05:21;22.00;99.90
30280;DHT22;17097;50.916;5.344;2023-06-10T02:07:47;22.00;99.90
30280;DHT22;17097;50.916;5.344;2023-06-10T02:10:12;21.90;99.90
30280;DHT22;17097;50.916;5.344;2023-06-10T02:12:38;21.90;99.90
30280;DHT22;17097;50.916;5.344;2023-06-10T02:15:04;21.90;99.90
30280;DHT22;17097;50.916;5.344;2023-06-10T02:17:30;21.90;99.90
30280;DHT22;17097;50.916;5.344;2023-06-10T02:19:56;21.80;99.90
30280;DHT22;17097;50.916;5.344;2023-06-10T02:22:23;21.70;99.90
30280;DHT22;17097;50.916;5.344;2023-06-10T02:24:49;21.70;99.90
30280;DHT22;17097;50.916;5.344;2023-06-10T02:27:18;21.70;99.90
30280;DHT22;17097;50.916;5.344;2023-06-10T02:29:44;21.70;99.90
30280;DHT22;17097;50.916;5.344;2023-06-10T02:32:15;21.60;99.90
30280;DHT22;17097;50.916;5.344;2023-06-10T02:34:42;21.60;99.90
30280;DHT22;17097;50.916;5.344;2023-06-10T02:37:08;21.60;99.90
30280;DHT22;17097;50.916;5.344;2023-06-10T02:39:34;21.60;99.90
30280;DHT22;17097;50.916;5.344;2023-06-10T02:42:02;21.50;99.90
30280;DHT22;17097;50.916;5.344;2023-06-10T02:44:27;21.50;99.90
30280;DHT22;17097;50.916;5.344;2023-06-10T02:46:53;21.50;99.90
30280;DHT22;17097;50.916;5.344;2023-06-10T02:49:21;21.40;99.90
30280;DHT22;17097;50.916;5.344;2023-06-10T02:51:47;21.40;99.90
30280;DHT22;17097;50.916;5.344;2023-06-10T02:54:13;21.40;99.90
30280;DHT22;17097;50.916;5.344;2023-06-10T02:56:41;21.40;99.90
30280;DHT22;17097;50.916;5.344;2023-06-10T02:59:07;21.40;99.90
30280;DHT22;17097;50.916;5.344;2023-06-10T03:01:33;21.40;99.90
30280;DHT22;17097;50.916;5.344;2023-06-10T03:04:03;21.30;99.90
30280;DHT22;17097;50.916;5.344;2023-06-10T03:06:29;21.30;99.90
30280;DHT22;17097;50.916;5.344;2023-06-10T03:08:55;21.20;99.90
30280;DHT22;17097;50.916;5.344;2023-06-10T03:11:24;21.20;99.90
30280;DHT22;17097;50.916;5.344;2023-06-10T03:13:51;21.20;99.90
30280;DHT22;17097;50.916;5.344;2023-06-10T03:16:20;21.10;99.90
30280;DHT22;17097;50.916;5.344;2023-06-10T03:18:45;21.10;99.90
30280;DHT22;17097;50.916;5.344;2023-06-10T03:21:13;21.10;99.90
30280;DHT22;17097;50.916;5.344;2023-06-10T03:23:39;21.10;99.90
30280;DHT22;17097;50.916;5.344;2023-06-10T03:26:04;21.10;99.90
30280;DHT22;17097;50.916;5.344;2023-06-10T03:28:31;21.10;99.90
30280;DHT22;17097;50.916;5.344;2023-06-10T03:30:57;21.10;99.90
30280;DHT22;17097;50.916;5.344;2023-06-10T03:33:22;21.10;99.90
30280;DHT22;17097;50.916;5.344;2023-06-10T03:35:48;21.10;99.90
30280;DHT22;17097;50.916;5.344;2023-06-10T03:38:14;21.00;99.90
30280;DHT22;17097;50.916;5.344;2023-06-10T03:40:40;21.00;99.90
30280;DHT22;17097;50.916;5.344;2023-06-10T03:43:05;21.00;99.90
30280;DHT22;17097;50.916;5.344;2023-06-10T03:45:31;21.00;99.90
30280;DHT22;17097;50.916;5.344;2023-06-10T03:47:57;20.90;99.90
30280;DHT22;17097;50.916;5.344;2023-06-10T03:50:25;21.00;99.90
30280;DHT22;17097;50.916;5.344;2023-06-10T03:52:51;21.00;99.90
30280;DHT22;17097;50.916;5.344;2023-06-10T03:55:17;21.00;99.90
30280;DHT22;17097;50.916;5.344;2023-06-10T03:57:43;20.90;99.90
30280;DHT22;17097;50.916;5.344;2023-06-10T04:00:09;21.00;99.90
30280;DHT22;17097;50.916;5.344;2023-06-10T04:02:41;21.00;99.90
30280;DHT22;17097;50.916;5.344;2023-06-10T04:05:15;20.90;99.90
30280;DHT22;17097;50.916;5.344;2023-06-10T04:07:42;21.00;99.90
30280;DHT22;17097;50.916;5.344;2023-06-10T04:10:10;20.90;99.90
30280;DHT22;17097;50.916;5.344;2023-06-10T04:12:37;20.90;99.90
30280;DHT22;17097;50.916;5.344;2023-06-10T04:15:04;21.00;99.90
30280;DHT22;17097;50.916;5.344;2023-06-10T04:17:30;21.00;99.90
30280;DHT22;17097;50.916;5.344;2023-06-10T04:19:57;21.00;99.90
30280;DHT22;17097;50.916;5.344;2023-06-10T04:22:23;21.10;99.90
30280;DHT22;17097;50.916;5.344;2023-06-10T04:24:49;21.10;99.90
30280;DHT22;17097;50.916;5.344;2023-06-10T04:27:18;21.10;99.90
30280;DHT22;17097;50.916;5.344;2023-06-10T04:29:44;21.20;99.90
30280;DHT22;17097;50.916;5.344;2023-06-10T04:32:09;21.20;99.90
30280;DHT22;17097;50.916;5.344;2023-06-10T04:34:38;21.30;99.90
30280;DHT22;17097;50.916;5.344;2023-06-10T04:37:23;21.40;99.90
30280;DHT22;17097;50.916;5.344;2023-06-10T04:39:51;21.40;99.90
30280;DHT22;17097;50.916;5.344;2023-06-10T04:42:16;21.50;99.90
30280;DHT22;17097;50.916;5.344;2023-06-10T04:44:45;21.50;99.90
30280;DHT22;17097;50.916;5.344;2023-06-10T04:47:12;21.50;99.90
30280;DHT22;17097;50.916;5.344;2023-06-10T04:49:38;21.50;99.90
30280;DHT22;17097;50.916;5.344;2023-06-10T04:52:04;21.60;99.90
30280;DHT22;17097;50.916;5.344;2023-06-10T04:54:30;21.70;99.90
30280;DHT22;17097;50.916;5.344;2023-06-10T04:56:56;21.60;99.90
30280;DHT22;17097;50.916;5.344;2023-06-10T04:59:22;21.70;99.90
30280;DHT22;17097;50.916;5.344;2023-06-10T05:01:48;21.70;99.90
30280;DHT22;17097;50.916;5.344;2023-06-10T05:04:16;21.80;99.90
30280;DHT22;17097;50.916;5.344;2023-06-10T05:06:42;21.90;99.90
30280;DHT22;17097;50.916;5.344;2023-06-10T05:09:07;21.90;99.90
30280;DHT22;17097;50.916;5.344;2023-06-10T05:11:35;22.00;99.90
30280;DHT22;17097;50.916;5.344;2023-06-10T05:14:01;22.10;99.90
30280;DHT22;17097;50.916;5.344;2023-06-10T05:16:26;22.10;99.90
30280;DHT22;17097;50.916;5.344;2023-06-10T05:18:53;22.10;99.90
30280;DHT22;17097;50.916;5.344;2023-06-10T05:21:21;22.20;99.90
30280;DHT22;17097;50.916;5.344;2023-06-10T05:23:46;22.20;99.90
30280;DHT22;17097;50.916;5.344;2023-06-10T05:26:18;22.30;99.90
30280;DHT22;17097;50.916;5.344;2023-06-10T05:28:45;22.40;99.90
30280;DHT22;17097;50.916;5.344;2023-06-10T05:31:11;22.40;99.90
30280;DHT22;17097;50.916;5.344;2023-06-10T05:33:36;22.50;99.90
30280;DHT22;17097;50.916;5.344;2023-06-10T05:36:02;22.60;99.90
30280;DHT22;17097;50.916;5.344;2023-06-10T05:38:28;22.50;99.90
30280;DHT22;17097;50.916;5.344;2023-06-10T05:40:53;22.60;99.90
30280;DHT22;17097;50.916;5.344;2023-06-10T05:43:22;22.60;99.90
30280;DHT22;17097;50.916;5.344;2023-06-10T05:45:47;22.70;99.90
30280;DHT22;17097;50.916;5.344;2023-06-10T05:48:16;22.80;99.90
30280;DHT22;17097;50.916;5.344;2023-06-10T05:50:41;23.00;99.90
30280;DHT22;17097;50.916;5.344;2023-06-10T05:53:10;23.10;99.90
30280;DHT22;17097;50.916;5.344;2023-06-10T05:55:44;23.20;99.90
30280;DHT22;17097;50.916;5.344;2023-06-10T05:58:10;23.30;99.90
30280;DHT22;17097;50.916;5.344;2023-06-10T06:00:41;23.30;99.90
30280;DHT22;17097;50.916;5.344;2023-06-10T06:03:10;23.40;99.90
30280;DHT22;17097;50.916;5.344;2023-06-10T06:05:36;23.40;99.90
30280;DHT22;17097;50.916;5.344;2023-06-10T06:08:06;23.60;99.90
30280;DHT22;17097;50.916;5.344;2023-06-10T06:10:32;23.60;99.90
30280;DHT22;17097;50.916;5.344;2023-06-10T06:12:58;23.80;99.90
30280;DHT22;17097;50.916;5.344;2023-06-10T06:15:23;24.00;99.90
30280;DHT22;17097;50.916;5.344;2023-06-10T06:17:49;24.00;99.90
30280;DHT22;17097;50.916;5.344;2023-06-10T06:20:20;24.00;99.90
30280;DHT22;17097;50.916;5.344;2023-06-10T06:22:48;24.00;99.90
30280;DHT22;17097;50.916;5.344;2023-06-10T06:25:14;24.20;99.90
30280;DHT22;17097;50.916;5.344;2023-06-10T06:27:42;24.20;99.90
30280;DHT22;17097;50.916;5.344;2023-06-10T06:30:08;24.40;99.90
30280;DHT22;17097;50.916;5.344;2023-06-10T06:32:34;24.40;99.90
30280;DHT22;17097;50.916;5.344;2023-06-10T06:35:00;24.50;99.90
30280;DHT22;17097;50.916;5.344;2023-06-10T06:37:26;24.70;99.90
30280;DHT22;17097;50.916;5.344;2023-06-10T06:39:54;24.70;99.90
30280;DHT22;17097;50.916;5.344;2023-06-10T06:42:20;24.80;99.90
30280;DHT22;17097;50.916;5.344;2023-06-10T06:44:47;24.90;99.90
30280;DHT22;17097;50.916;5.344;2023-06-10T06:47:13;25.00;99.90
30280;DHT22;17097;50.916;5.344;2023-06-10T06:49:39;25.30;99.90
30280;DHT22;17097;50.916;5.344;2023-06-10T06:52:05;25.50;99.90
30280;DHT22;17097;50.916;5.344;2023-06-10T06:54:36;25.60;99.90
30280;DHT22;17097;50.916;5.344;2023-06-10T06:57:05;25.70;99.90
30280;DHT22;17097;50.916;5.344;2023-06-10T06:59:31;25.90;99.90
30280;DHT22;17097;50.916;5.344;2023-06-10T07:01:57;26.00;99.90
30280;DHT22;17097;50.916;5.344;2023-06-10T07:04:22;25.90;99.90
30280;DHT22;17097;50.916;5.344;2023-06-10T07:06:48;25.90;99.90
30280;DHT22;17097;50.916;5.344;2023-06-10T07:09:15;26.00;99.90
30280;DHT22;17097;50.916;5.344;2023-06-10T07:11:43;26.10;99.90
30280;DHT22;17097;50.916;5.344;2023-06-10T07:14:09;26.20;99.90
30280;DHT22;17097;50.916;5.344;2023-06-10T07:16:37;26.30;99.90
30280;DHT22;17097;50.916;5.344;2023-06-10T07:19:02;26.50;99.90
30280;DHT22;17097;50.916;5.344;2023-06-10T07:21:30;26.50;99.70
30280;DHT22;17097;50.916;5.344;2023-06-10T07:23:58;26.70;99.00
30280;DHT22;17097;50.916;5.344;2023-06-10T07:26:26;26.70;99.60
30280;DHT22;17097;50.916;5.344;2023-06-10T07:28:52;26.80;99.60
30280;DHT22;17097;50.916;5.344;2023-06-10T07:31:18;26.90;99.90
30280;DHT22;17097;50.916;5.344;2023-06-10T07:33:44;26.90;99.90
30280;DHT22;17097;50.916;5.344;2023-06-10T07:36:10;27.10;99.90
30280;DHT22;17097;50.916;5.344;2023-06-10T07:38:36;27.10;99.90
30280;DHT22;17097;50.916;5.344;2023-06-10T07:41:02;27.10;99.90
30280;DHT22;17097;50.916;5.344;2023-06-10T07:43:28;27.20;99.90
30280;DHT22;17097;50.916;5.344;2023-06-10T07:45:57;27.50;99.50
30280;DHT22;17097;50.916;5.344;2023-06-10T07:48:25;27.70;98.90
30280;DHT22;17097;50.916;5.344;2023-06-10T07:50:51;28.00;97.30
30280;DHT22;17097;50.916;5.344;2023-06-10T07:53:17;28.10;96.90
30280;DHT22;17097;50.916;5.344;2023-06-10T07:55:44;28.20;97.50
30280;DHT22;17097;50.916;5.344;2023-06-10T07:58:09;28.20;96.80
30280;DHT22;17097;50.916;5.344;2023-06-10T08:00:37;28.20;97.30
30280;DHT22;17097;50.916;5.344;2023-06-10T08:03:03;28.20;96.90
30280;DHT22;17097;50.916;5.344;2023-06-10T08:05:29;28.30;97.30
30280;DHT22;17097;50.916;5.344;2023-06-10T08:07:58;28.40;96.60
30280;DHT22;17097;50.916;5.344;2023-06-10T08:10:24;28.60;95.50
30280;DHT22;17097;50.916;5.344;2023-06-10T08:12:49;28.80;94.90
30280;DHT22;17097;50.916;5.344;2023-06-10T08:15:15;28.90;94.20
30280;DHT22;17097;50.916;5.344;2023-06-10T08:17:41;29.10;93.70
30280;DHT22;17097;50.916;5.344;2023-06-10T08:20:07;29.20;93.90
30280;DHT22;17097;50.916;5.344;2023-06-10T08:22:34;29.20;92.90
30280;DHT22;17097;50.916;5.344;2023-06-10T08:25:00;29.40;92.00
30280;DHT22;17097;50.916;5.344;2023-06-10T08:27:25;29.50;92.70
30280;DHT22;17097;50.916;5.344;2023-06-10T08:29:51;29.50;92.70
30280;DHT22;17097;50.916;5.344;2023-06-10T08:32:17;29.60;93.50
30280;DHT22;17097;50.916;5.344;2023-06-10T08:34:45;29.90;92.50
30280;DHT22;17097;50.916;5.344;2023-06-10T08:37:16;29.90;92.60
30280;DHT22;17097;50.916;5.344;2023-06-10T08:39:44;30.20;91.80
30280;DHT22;17097;50.916;5.344;2023-06-10T08:42:22;30.40;91.30
30280;DHT22;17097;50.916;5.344;2023-06-10T08:44:53;30.70;90.40
30280;DHT22;17097;50.916;5.344;2023-06-10T08:47:19;30.70;90.50
30280;DHT22;17097;50.916;5.344;2023-06-10T08:49:47;30.90;87.10
30280;DHT22;17097;50.916;5.344;2023-06-10T08:52:20;30.90;88.60
30280;DHT22;17097;50.916;5.344;2023-06-10T08:54:59;31.20;86.40
30280;DHT22;17097;50.916;5.344;2023-06-10T08:57:26;31.50;83.90
30280;DHT22;17097;50.916;5.344;2023-06-10T08:59:56;32.00;81.50
30280;DHT22;17097;50.916;5.344;2023-06-10T09:02:23;32.60;81.50
30280;DHT22;17097;50.916;5.344;2023-06-10T09:04:50;33.30;78.00
30280;DHT22;17097;50.916;5.344;2023-06-10T09:07:16;33.90;76.10
30280;DHT22;17097;50.916;5.344;2023-06-10T09:09:43;34.30;75.00
30280;DHT22;17097;50.916;5.344;2023-06-10T09:12:10;34.70;71.00
30280;DHT22;17097;50.916;5.344;2023-06-10T09:14:36;35.20;70.60
30280;DHT22;17097;50.916;5.344;2023-06-10T09:17:05;35.80;67.00
30280;DHT22;17097;50.916;5.344;2023-06-10T09:19:35;36.20;63.50
30280;DHT22;17097;50.916;5.344;2023-06-10T09:22:02;36.40;63.80
30280;DHT22;17097;50.916;5.344;2023-06-10T09:24:29;36.30;63.10
30280;DHT22;17097;50.916;5.344;2023-06-10T09:29:31;37.30;58.70
30280;DHT22;17097;50.916;5.344;2023-06-10T09:32:03;37.50;55.00
30280;DHT22;17097;50.916;5.344;2023-06-10T09:34:29;37.70;54.70
30280;DHT22;17097;50.916;5.344;2023-06-10T09:36:56;37.90;54.80
30280;DHT22;17097;50.916;5.344;2023-06-10T09:39:21;37.90;54.20
30280;DHT22;17097;50.916;5.344;2023-06-10T09:41:47;38.20;53.60
30280;DHT22;17097;50.916;5.344;2023-06-10T09:44:13;38.30;51.50
30280;DHT22;17097;50.916;5.344;2023-06-10T09:46:40;38.30;50.30
30280;DHT22;17097;50.916;5.344;2023-06-10T09:49:06;38.40;50.60
30280;DHT22;17097;50.916;5.344;2023-06-10T09:51:32;38.50;51.00
30280;DHT22;17097;50.916;5.344;2023-06-10T09:53:59;38.60;50.10
30280;DHT22;17097;50.916;5.344;2023-06-10T09:56:37;38.80;50.90
30280;DHT22;17097;50.916;5.344;2023-06-10T09:59:04;38.90;49.30
30280;DHT22;17097;50.916;5.344;2023-06-10T10:01:32;39.10;49.80
30280;DHT22;17097;50.916;5.344;2023-06-10T10:03:59;39.30;48.50
30280;DHT22;17097;50.916;5.344;2023-06-10T10:06:25;39.40;48.30
30280;DHT22;17097;50.916;5.344;2023-06-10T10:08:51;39.40;47.10
30280;DHT22;17097;50.916;5.344;2023-06-10T10:11:23;39.60;47.70
30280;DHT22;17097;50.916;5.344;2023-06-10T10:13:50;39.50;47.30
30280;DHT22;17097;50.916;5.344;2023-06-10T10:16:21;39.50;44.20
30280;DHT22;17097;50.916;5.344;2023-06-10T10:19:07;39.50;44.80
30280;DHT22;17097;50.916;5.344;2023-06-10T10:21:39;39.30;45.80
30280;DHT22;17097;50.916;5.344;2023-06-10T10:24:21;39.00;44.20
30280;DHT22;17097;50.916;5.344;2023-06-10T10:26:50;39.10;43.60
30280;DHT22;17097;50.916;5.344;2023-06-10T10:29:31;38.80;43.60
30280;DHT22;17097;50.916;5.344;2023-06-10T10:32:01;38.90;44.20
30280;DHT22;17097;50.916;5.344;2023-06-10T10:34:41;38.80;43.80
30280;DHT22;17097;50.916;5.344;2023-06-10T10:37:08;38.90;44.10
30280;DHT22;17097;50.916;5.344;2023-06-10T10:39:36;38.40;44.10
30280;DHT22;17097;50.916;5.344;2023-06-10T10:42:04;38.50;47.60
30280;DHT22;17097;50.916;5.344;2023-06-10T10:44:31;38.60;46.70
30280;DHT22;17097;50.916;5.344;2023-06-10T10:47:02;38.70;44.70
30280;DHT22;17097;50.916;5.344;2023-06-10T10:49:30;38.70;44.50
30280;DHT22;17097;50.916;5.344;2023-06-10T10:52:00;38.70;44.70
30280;DHT22;17097;50.916;5.344;2023-06-10T10:54:30;38.80;43.70
30280;DHT22;17097;50.916;5.344;2023-06-10T10:59:55;38.90;44.00
30280;DHT22;17097;50.916;5.344;2023-06-10T11:02:36;38.80;42.80
30280;DHT22;17097;50.916;5.344;2023-06-10T11:05:07;38.60;43.30
30280;DHT22;17097;50.916;5.344;2023-06-10T11:07:34;38.40;42.80
30280;DHT22;17097;50.916;5.344;2023-06-10T11:10:13;38.20;41.60
30280;DHT22;17097;50.916;5.344;2023-06-10T11:12:53;37.80;41.30
30280;DHT22;17097;50.916;5.344;2023-06-10T11:15:24;37.80;42.40
30280;DHT22;17097;50.916;5.344;2023-06-10T11:18:12;37.60;43.10
30280;DHT22;17097;50.916;5.344;2023-06-10T11:26:08;36.80;44.70
30280;DHT22;17097;50.916;5.344;2023-06-10T11:28:34;36.80;44.70
30280;DHT22;17097;50.916;5.344;2023-06-10T11:31:02;36.70;44.50
30280;DHT22;17097;50.916;5.344;2023-06-10T11:33:29;36.70;44.20
30280;DHT22;17097;50.916;5.344;2023-06-10T11:35:56;36.50;45.70
30280;DHT22;17097;50.916;5.344;2023-06-10T11:38:22;36.60;44.60
30280;DHT22;17097;50.916;5.344;2023-06-10T11:40:51;36.90;46.00
30280;DHT22;17097;50.916;5.344;2023-06-10T11:43:20;37.20;44.90
30280;DHT22;17097;50.916;5.344;2023-06-10T11:45:47;37.30;42.70
30280;DHT22;17097;50.916;5.344;2023-06-10T11:48:13;37.30;41.70
30280;DHT22;17097;50.916;5.344;2023-06-10T11:50:41;37.40;42.60
30280;DHT22;17097;50.916;5.344;2023-06-10T11:53:08;37.30;41.90
30280;DHT22;17097;50.916;5.344;2023-06-10T11:55:44;37.30;41.90
30280;DHT22;17097;50.916;5.344;2023-06-10T11:58:14;37.50;42.20
30280;DHT22;17097;50.916;5.344;2023-06-10T12:00:52;37.50;42.10
30280;DHT22;17097;50.916;5.344;2023-06-10T12:03:29;37.50;40.70
30280;DHT22;17097;50.916;5.344;2023-06-10T12:06:05;37.60;40.60
30280;DHT22;17097;50.916;5.344;2023-06-10T12:08:31;37.10;39.60
30280;DHT22;17097;50.916;5.344;2023-06-10T12:11:00;36.90;40.60
30280;DHT22;17097;50.916;5.344;2023-06-10T12:13:27;36.40;39.20
30280;DHT22;17097;50.916;5.344;2023-06-10T12:16:08;36.10;39.70
30280;DHT22;17097;50.916;5.344;2023-06-10T12:18:35;36.00;41.30
30280;DHT22;17097;50.916;5.344;2023-06-10T12:21:00;35.80;41.10
30280;DHT22;17097;50.916;5.344;2023-06-10T12:23:27;35.70;41.30
30280;DHT22;17097;50.916;5.344;2023-06-10T12:25:55;35.50;42.30
30280;DHT22;17097;50.916;5.344;2023-06-10T12:28:22;35.40;41.70
30280;DHT22;17097;50.916;5.344;2023-06-10T12:30:49;35.30;42.80
30280;DHT22;17097;50.916;5.344;2023-06-10T12:33:16;35.30;42.80
30280;DHT22;17097;50.916;5.344;2023-06-10T12:35:49;35.30;43.40
30280;DHT22;17097;50.916;5.344;2023-06-10T12:38:24;35.20;44.30
30280;DHT22;17097;50.916;5.344;2023-06-10T12:40:52;35.40;44.30
30280;DHT22;17097;50.916;5.344;2023-06-10T12:43:24;35.60;41.90
30280;DHT22;17097;50.916;5.344;2023-06-10T12:45:51;35.70;42.20
30280;DHT22;17097;50.916;5.344;2023-06-10T12:48:25;35.90;43.00
30280;DHT22;17097;50.916;5.344;2023-06-10T12:50:56;36.00;42.00
30280;DHT22;17097;50.916;5.344;2023-06-10T12:53:24;36.10;41.50
30280;DHT22;17097;50.916;5.344;2023-06-10T12:55:51;36.00;41.40
30280;DHT22;17097;50.916;5.344;2023-06-10T12:58:16;35.90;42.90
30280;DHT22;17097;50.916;5.344;2023-06-10T13:00:42;36.00;43.50
30280;DHT22;17097;50.916;5.344;2023-06-10T13:03:09;36.00;41.00
30280;DHT22;17097;50.916;5.344;2023-06-10T13:05:35;35.80;40.60
30280;DHT22;17097;50.916;5.344;2023-06-10T13:08:07;35.70;41.80
30280;DHT22;17097;50.916;5.344;2023-06-10T13:10:33;35.70;42.40
30280;DHT22;17097;50.916;5.344;2023-06-10T13:13:00;35.70;41.30
30280;DHT22;17097;50.916;5.344;2023-06-10T13:15:30;35.90;42.70
30280;DHT22;17097;50.916;5.344;2023-06-10T13:17:55;35.90;42.80
30280;DHT22;17097;50.916;5.344;2023-06-10T13:20:22;36.00;43.30
30280;DHT22;17097;50.916;5.344;2023-06-10T13:22:48;35.80;42.70
30280;DHT22;17097;50.916;5.344;2023-06-10T13:25:17;35.80;41.40
30280;DHT22;17097;50.916;5.344;2023-06-10T13:27:43;35.90;42.60
30280;DHT22;17097;50.916;5.344;2023-06-10T13:30:09;35.90;42.40
30280;DHT22;17097;50.916;5.344;2023-06-10T13:32:35;36.00;42.20
30280;DHT22;17097;50.916;5.344;2023-06-10T13:35:01;36.20;42.10
30280;DHT22;17097;50.916;5.344;2023-06-10T13:37:29;36.30;41.90
30280;DHT22;17097;50.916;5.344;2023-06-10T13:39:55;36.30;40.50
30280;DHT22;17097;50.916;5.344;2023-06-10T13:42:24;36.30;40.30
30280;DHT22;17097;50.916;5.344;2023-06-10T13:44:51;36.20;41.20
30280;DHT22;17097;50.916;5.344;2023-06-10T13:47:17;36.30;42.10
30280;DHT22;17097;50.916;5.344;2023-06-10T13:49:43;36.30;41.90
30280;DHT22;17097;50.916;5.344;2023-06-10T13:52:08;36.20;42.00
30280;DHT22;17097;50.916;5.344;2023-06-10T13:54:37;35.90;42.20
30280;DHT22;17097;50.916;5.344;2023-06-10T13:57:04;35.90;42.70
30280;DHT22;17097;50.916;5.344;2023-06-10T13:59:30;35.80;41.50
30280;DHT22;17097;50.916;5.344;2023-06-10T14:01:56;35.60;41.00
30280;DHT22;17097;50.916;5.344;2023-06-10T14:04:26;35.60;41.90
30280;DHT22;17097;50.916;5.344;2023-06-10T14:06:52;35.50;40.00
30280;DHT22;17097;50.916;5.344;2023-06-10T14:09:20;35.60;41.00
30280;DHT22;17097;50.916;5.344;2023-06-10T14:11:46;35.70;40.60
30280;DHT22;17097;50.916;5.344;2023-06-10T14:14:12;35.80;40.70
30280;DHT22;17097;50.916;5.344;2023-06-10T14:16:40;35.90;40.50
30280;DHT22;17097;50.916;5.344;2023-06-10T14:19:08;36.10;40.10
30280;DHT22;17097;50.916;5.344;2023-06-10T14:21:34;36.30;40.00
30280;DHT22;17097;50.916;5.344;2023-06-10T14:24:00;36.40;40.10
30280;DHT22;17097;50.916;5.344;2023-06-10T14:26:28;36.50;39.80
30280;DHT22;17097;50.916;5.344;2023-06-10T14:28:54;36.60;40.70
30280;DHT22;17097;50.916;5.344;2023-06-10T14:31:19;36.60;41.60
30280;DHT22;17097;50.916;5.344;2023-06-10T14:33:47;36.60;40.40
30280;DHT22;17097;50.916;5.344;2023-06-10T14:36:13;36.70;40.70
30280;DHT22;17097;50.916;5.344;2023-06-10T14:38:39;36.80;40.90
30280;DHT22;17097;50.916;5.344;2023-06-10T14:41:05;36.80;41.50
30280;DHT22;17097;50.916;5.344;2023-06-10T14:43:33;36.90;41.10
30280;DHT22;17097;50.916;5.344;2023-06-10T14:46:01;36.80;40.50
30280;DHT22;17097;50.916;5.344;2023-06-10T14:48:28;36.80;40.90
30280;DHT22;17097;50.916;5.344;2023-06-10T14:50:56;36.70;40.10
30280;DHT22;17097;50.916;5.344;2023-06-10T14:53:21;36.60;41.70
30280;DHT22;17097;50.916;5.344;2023-06-10T14:55:47;36.60;42.00
30280;DHT22;17097;50.916;5.344;2023-06-10T14:58:13;36.70;41.20
30280;DHT22;17097;50.916;5.344;2023-06-10T15:00:39;36.60;41.20
30280;DHT22;17097;50.916;5.344;2023-06-10T15:03:05;36.30;40.90
30280;DHT22;17097;50.916;5.344;2023-06-10T15:05:38;36.30;41.00
30280;DHT22;17097;50.916;5.344;2023-06-10T15:08:04;36.30;42.10
30280;DHT22;17097;50.916;5.344;2023-06-10T15:10:30;36.40;41.40
30280;DHT22;17097;50.916;5.344;2023-06-10T15:12:56;36.40;41.60
30280;DHT22;17097;50.916;5.344;2023-06-10T15:15:24;36.40;41.40
30280;DHT22;17097;50.916;5.344;2023-06-10T15:17:53;36.40;41.60
30280;DHT22;17097;50.916;5.344;2023-06-10T15:20:19;36.30;41.10
30280;DHT22;17097;50.916;5.344;2023-06-10T15:22:45;36.20;41.00
30280;DHT22;17097;50.916;5.344;2023-06-10T15:25:11;36.00;42.50
30280;DHT22;17097;50.916;5.344;2023-06-10T15:27:37;35.80;44.50
30280;DHT22;17097;50.916;5.344;2023-06-10T15:30:06;35.60;44.40
30280;DHT22;17097;50.916;5.344;2023-06-10T15:32:32;35.70;45.30
30280;DHT22;17097;50.916;5.344;2023-06-10T15:34:58;35.70;46.10
30280;DHT22;17097;50.916;5.344;2023-06-10T15:37:24;35.70;44.80
30280;DHT22;17097;50.916;5.344;2023-06-10T15:39:50;35.60;45.00
30280;DHT22;17097;50.916;5.344;2023-06-10T15:42:20;35.30;45.30
30280;DHT22;17097;50.916;5.344;2023-06-10T15:44:46;35.20;46.70
30280;DHT22;17097;50.916;5.344;2023-06-10T15:47:14;35.10;46.30
30280;DHT22;17097;50.916;5.344;2023-06-10T15:49:40;35.20;46.30
30280;DHT22;17097;50.916;5.344;2023-06-10T15:52:09;35.30;46.40
30280;DHT22;17097;50.916;5.344;2023-06-10T15:54:35;35.40;45.60